This is the latest recevied weather packets stored in our database for station/object SR9SMR. If no packets are shown the sender has not sent any weather packets the latest 10 day(s).
| Time | Temp. | Humidity | Pressure | Rain* | Wind** | Luminosity | Snow |
|---|---|---|---|---|---|---|---|
| 1777712631 | 13.89° C | 100% | 909.4 hPa | - | - | - | - |
| 1777712323 | 13.33° C | 100% | 908.8 hPa | - | - | - | - |
| 1777712012 | 13.33° C | 100% | 909.1 hPa | - | - | - | - |
| 1777711819 | 13.33° C | 100% | 909.4 hPa | - | - | - | - |
| 1777711513 | 13.89° C | 100% | 909.5 hPa | - | - | - | - |
| 1777711203 | 13.33° C | 100% | 909.3 hPa | - | - | - | - |
| 1777711007 | 12.78° C | 100% | 909 hPa | - | - | - | - |
| 1777710697 | 12.78° C | 100% | 909.1 hPa | - | - | - | - |
| 1777710387 | 12.78° C | 100% | 909 hPa | - | - | - | - |
| 1777710128 | 12.78° C | 100% | 909.2 hPa | - | - | - | - |
| 1777709818 | 12.78° C | 100% | 909.2 hPa | - | - | - | - |
| 1777709508 | 12.78° C | 100% | 909.4 hPa | - | - | - | - |
| 1777709366 | 12.78° C | 100% | 909.1 hPa | - | - | - | - |
| 1777709061 | 12.78° C | 100% | 909.2 hPa | - | - | - | - |
| 1777708749 | 12.78° C | 100% | 909.6 hPa | - | - | - | - |
| 1777708552 | 12.78° C | 100% | 909.8 hPa | - | - | - | - |
| 1777708243 | 11.67° C | 100% | 908.9 hPa | - | - | - | - |
| 1777707933 | 12.22° C | 100% | 909.2 hPa | - | - | - | - |
| 1777707737 | 12.22° C | 100% | 909.4 hPa | - | - | - | - |
| 1777707428 | 12.22° C | 100% | 909.4 hPa | - | - | - | - |
| 1777707118 | 11.67° C | 100% | 909.3 hPa | - | - | - | - |
| 1777706921 | 11.67° C | 100% | 909.1 hPa | - | - | - | - |
| 1777706612 | 12.22° C | 100% | 909.6 hPa | - | - | - | - |
| 1777706301 | 11.67° C | 100% | 909.1 hPa | - | - | - | - |
| 1777706105 | 11.67° C | 100% | 909 hPa | - | - | - | - |
* Rain since midnight (hover to see other rain measurements)
** Current wind speed in m/s (hover to see current wind gust speed)